sensor_id;sensor_type;location;lat;lon;timestamp;pressure;altitude;pressure_sealevel;temperature;humidity
70976;BME280;58635;51.198;6.010;2023-05-17T00:01:41;102258.22;;;15.00;51.63
70976;BME280;58635;51.198;6.010;2023-05-17T00:04:06;102259.38;;;14.98;51.81
70976;BME280;58635;51.198;6.010;2023-05-17T00:06:32;102265.78;;;14.95;51.78
70976;BME280;58635;51.198;6.010;2023-05-17T00:08:59;102259.31;;;14.91;51.84
70976;BME280;58635;51.198;6.010;2023-05-17T00:11:24;102259.50;;;14.89;51.87
70976;BME280;58635;51.198;6.010;2023-05-17T00:13:50;102267.50;;;14.88;51.97
70976;BME280;58635;51.198;6.010;2023-05-17T00:16:15;102260.06;;;14.85;52.02
70976;BME280;58635;51.198;6.010;2023-05-17T00:18:41;102260.44;;;14.82;52.15
70976;BME280;58635;51.198;6.010;2023-05-17T00:21:06;102264.19;;;14.79;52.28
70976;BME280;58635;51.198;6.010;2023-05-17T00:23:31;102263.59;;;14.77;52.13
70976;BME280;58635;51.198;6.010;2023-05-17T00:25:57;102266.38;;;14.76;51.84
70976;BME280;58635;51.198;6.010;2023-05-17T00:28:22;102264.78;;;14.75;52.27
70976;BME280;58635;51.198;6.010;2023-05-17T00:30:47;102268.56;;;14.72;52.26
70976;BME280;58635;51.198;6.010;2023-05-17T00:33:13;102269.75;;;14.70;52.48
70976;BME280;58635;51.198;6.010;2023-05-17T00:35:38;102269.94;;;14.68;52.45
70976;BME280;58635;51.198;6.010;2023-05-17T00:38:03;102259.84;;;14.65;52.51
70976;BME280;58635;51.198;6.010;2023-05-17T00:40:30;102276.66;;;14.62;52.55
70976;BME280;58635;51.198;6.010;2023-05-17T00:42:55;102269.03;;;14.61;52.70
70976;BME280;58635;51.198;6.010;2023-05-17T00:45:21;102270.41;;;14.57;52.65
70976;BME280;58635;51.198;6.010;2023-05-17T00:47:46;102276.75;;;14.54;52.67
70976;BME280;58635;51.198;6.010;2023-05-17T00:50:12;102273.72;;;14.51;52.83
70976;BME280;58635;51.198;6.010;2023-05-17T00:52:37;102271.50;;;14.48;52.84
70976;BME280;58635;51.198;6.010;2023-05-17T00:55:03;102271.69;;;14.46;52.93
70976;BME280;58635;51.198;6.010;2023-05-17T00:57:29;102273.63;;;14.44;53.00
70976;BME280;58635;51.198;6.010;2023-05-17T00:59:56;102273.78;;;14.43;52.98
70976;BME280;58635;51.198;6.010;2023-05-17T01:02:22;102273.97;;;14.41;53.13
70976;BME280;58635;51.198;6.010;2023-05-17T01:04:48;102270.94;;;14.38;53.16
70976;BME280;58635;51.198;6.010;2023-05-17T01:07:13;102268.69;;;14.34;53.21
70976;BME280;58635;51.198;6.010;2023-05-17T01:09:40;102265.47;;;14.32;53.34
70976;BME280;58635;51.198;6.010;2023-05-17T01:17:43;102276.97;;;14.23;53.60
70976;BME280;58635;51.198;6.010;2023-05-17T01:20:21;102275.69;;;14.19;53.45
70976;BME280;58635;51.198;6.010;2023-05-17T01:25:53;102285.66;;;14.16;53.68
70976;BME280;58635;51.198;6.010;2023-05-17T01:28:21;102278.41;;;14.11;53.76
70976;BME280;58635;51.198;6.010;2023-05-17T01:30:49;102279.41;;;14.10;53.97
70976;BME280;58635;51.198;6.010;2023-05-17T01:33:16;102273.72;;;14.07;54.05
70976;BME280;58635;51.198;6.010;2023-05-17T01:35:42;102272.13;;;14.05;54.02
70976;BME280;58635;51.198;6.010;2023-05-17T01:38:08;102275.72;;;14.04;54.06
70976;BME280;58635;51.198;6.010;2023-05-17T01:40:35;102266.47;;;14.02;54.10
70976;BME280;58635;51.198;6.010;2023-05-17T01:43:19;102265.84;;;14.00;54.20
70976;BME280;58635;51.198;6.010;2023-05-17T01:46:11;102267.81;;;13.98;54.29
70976;BME280;58635;51.198;6.010;2023-05-17T01:48:43;102276.59;;;13.97;54.46
70976;BME280;58635;51.198;6.010;2023-05-17T01:51:16;102280.47;;;13.86;54.42
70976;BME280;58635;51.198;6.010;2023-05-17T01:53:47;102276.69;;;13.89;54.37
70976;BME280;58635;51.198;6.010;2023-05-17T01:56:18;102281.91;;;13.89;54.37
70976;BME280;58635;51.198;6.010;2023-05-17T01:58:46;102276.06;;;13.87;54.49
70976;BME280;58635;51.198;6.010;2023-05-17T02:01:14;102277.69;;;13.88;54.65
70976;BME280;58635;51.198;6.010;2023-05-17T02:03:40;102285.66;;;13.86;54.88
70976;BME280;58635;51.198;6.010;2023-05-17T02:06:06;102291.19;;;13.83;54.94
70976;BME280;58635;51.198;6.010;2023-05-17T02:08:31;102290.56;;;13.81;54.51
70976;BME280;58635;51.198;6.010;2023-05-17T02:10:57;102288.16;;;13.80;55.06
70976;BME280;58635;51.198;6.010;2023-05-17T02:13:22;102292.72;;;13.78;55.23
70976;BME280;58635;51.198;6.010;2023-05-17T02:15:49;102292.91;;;13.76;55.28
70976;BME280;58635;51.198;6.010;2023-05-17T02:18:14;102290.50;;;13.74;55.13
70976;BME280;58635;51.198;6.010;2023-05-17T02:20:40;102291.47;;;13.73;55.82
70976;BME280;58635;51.198;6.010;2023-05-17T02:23:05;102289.03;;;13.72;55.21
70976;BME280;58635;51.198;6.010;2023-05-17T02:25:31;102291.81;;;13.70;55.35
70976;BME280;58635;51.198;6.010;2023-05-17T02:27:56;102290.19;;;13.69;55.38
70976;BME280;58635;51.198;6.010;2023-05-17T02:30:21;102298.19;;;13.68;55.52
70976;BME280;58635;51.198;6.010;2023-05-17T02:32:47;102296.56;;;13.67;55.64
70976;BME280;58635;51.198;6.010;2023-05-17T02:35:13;102295.75;;;13.66;55.64
70976;BME280;58635;51.198;6.010;2023-05-17T02:37:38;102288.94;;;13.65;55.59
70976;BME280;58635;51.198;6.010;2023-05-17T02:40:07;102295.13;;;13.64;55.81
70976;BME280;58635;51.198;6.010;2023-05-17T02:42:37;102293.53;;;13.63;55.66
70976;BME280;58635;51.198;6.010;2023-05-17T02:45:02;102290.28;;;13.61;55.83
70976;BME280;58635;51.198;6.010;2023-05-17T02:47:28;102286.84;;;13.61;55.82
70976;BME280;58635;51.198;6.010;2023-05-17T02:49:53;102295.66;;;13.60;55.94
70976;BME280;58635;51.198;6.010;2023-05-17T02:52:19;102297.63;;;13.58;55.85
70976;BME280;58635;51.198;6.010;2023-05-17T02:54:44;102299.41;;;13.57;56.00
70976;BME280;58635;51.198;6.010;2023-05-17T02:57:10;102308.19;;;13.56;55.87
70976;BME280;58635;51.198;6.010;2023-05-17T02:59:35;102310.00;;;13.56;56.02
70976;BME280;58635;51.198;6.010;2023-05-17T03:02:01;102314.38;;;13.55;55.98
70976;BME280;58635;51.198;6.010;2023-05-17T03:04:26;102312.75;;;13.54;55.87
70976;BME280;58635;51.198;6.010;2023-05-17T03:06:51;102313.75;;;13.53;55.84
70976;BME280;58635;51.198;6.010;2023-05-17T03:09:17;102315.53;;;13.53;56.11
70976;BME280;58635;51.198;6.010;2023-05-17T03:11:43;102319.13;;;13.52;56.09
70976;BME280;58635;51.198;6.010;2023-05-17T03:14:08;102317.53;;;13.51;56.17
70976;BME280;58635;51.198;6.010;2023-05-17T03:16:34;102327.91;;;13.51;56.13
70976;BME280;58635;51.198;6.010;2023-05-17T03:18:59;102322.72;;;13.51;55.79
70976;BME280;58635;51.198;6.010;2023-05-17T03:21:25;102331.47;;;13.50;55.96
70976;BME280;58635;51.198;6.010;2023-05-17T03:23:50;102334.91;;;13.50;56.16
70976;BME280;58635;51.198;6.010;2023-05-17T03:26:15;102322.88;;;13.49;56.22
70976;BME280;58635;51.198;6.010;2023-05-17T03:28:43;102322.88;;;13.49;56.12
70976;BME280;58635;51.198;6.010;2023-05-17T03:31:08;102325.66;;;13.48;56.23
70976;BME280;58635;51.198;6.010;2023-05-17T03:33:34;102330.03;;;13.47;56.12
70976;BME280;58635;51.198;6.010;2023-05-17T03:35:59;102326.63;;;13.46;55.98
70976;BME280;58635;51.198;6.010;2023-05-17T03:38:24;102331.81;;;13.46;56.08
70976;BME280;58635;51.198;6.010;2023-05-17T03:40:51;102331.81;;;13.46;56.14
70976;BME280;58635;51.198;6.010;2023-05-17T03:43:16;102335.22;;;13.47;56.22
70976;BME280;58635;51.198;6.010;2023-05-17T03:45:41;102338.63;;;13.48;56.17
70976;BME280;58635;51.198;6.010;2023-05-17T03:48:07;102347.25;;;13.48;56.25
70976;BME280;58635;51.198;6.010;2023-05-17T03:50:32;102347.91;;;13.50;56.66
70976;BME280;58635;51.198;6.010;2023-05-17T03:52:58;102357.47;;;13.50;56.68
70976;BME280;58635;51.198;6.010;2023-05-17T03:55:23;102352.94;;;13.52;56.61
70976;BME280;58635;51.198;6.010;2023-05-17T03:57:49;102353.56;;;13.54;56.76
70976;BME280;58635;51.198;6.010;2023-05-17T04:00:14;102359.75;;;13.53;56.80
70976;BME280;58635;51.198;6.010;2023-05-17T04:02:45;102362.16;;;13.54;56.97
70976;BME280;58635;51.198;6.010;2023-05-17T04:05:11;102358.41;;;13.57;56.89
70976;BME280;58635;51.198;6.010;2023-05-17T04:07:37;102363.25;;;13.60;56.94
70976;BME280;58635;51.198;6.010;2023-05-17T04:10:03;102358.53;;;13.63;56.96
70976;BME280;58635;51.198;6.010;2023-05-17T04:12:28;102360.13;;;13.64;57.08
70976;BME280;58635;51.198;6.010;2023-05-17T04:14:54;102364.97;;;13.67;57.19
70976;BME280;58635;51.198;6.010;2023-05-17T04:17:19;102356.81;;;13.70;56.92
70976;BME280;58635;51.198;6.010;2023-05-17T04:19:45;102371.25;;;13.73;56.82
70976;BME280;58635;51.198;6.010;2023-05-17T04:22:10;102364.75;;;13.77;56.83
70976;BME280;58635;51.198;6.010;2023-05-17T04:24:36;102368.78;;;13.80;56.80
70976;BME280;58635;51.198;6.010;2023-05-17T04:27:01;102372.63;;;13.84;56.84
70976;BME280;58635;51.198;6.010;2023-05-17T04:29:28;102380.09;;;13.87;56.81
70976;BME280;58635;51.198;6.010;2023-05-17T04:31:54;102377.16;;;13.90;56.87
70976;BME280;58635;51.198;6.010;2023-05-17T04:34:20;102374.38;;;13.91;56.87
70976;BME280;58635;51.198;6.010;2023-05-17T04:36:47;102381.81;;;13.94;56.70
70976;BME280;58635;51.198;6.010;2023-05-17T04:39:13;102384.09;;;13.97;56.78
70976;BME280;58635;51.198;6.010;2023-05-17T04:41:38;102387.31;;;13.99;56.65
70976;BME280;58635;51.198;6.010;2023-05-17T04:44:04;102385.16;;;14.03;56.68
70976;BME280;58635;51.198;6.010;2023-05-17T04:46:30;102387.41;;;14.06;56.68
70976;BME280;58635;51.198;6.010;2023-05-17T04:48:56;102388.03;;;14.08;56.72
70976;BME280;58635;51.198;6.010;2023-05-17T04:51:22;102392.09;;;14.11;56.54
70976;BME280;58635;51.198;6.010;2023-05-17T04:53:47;102393.69;;;14.12;56.50
70976;BME280;58635;51.198;6.010;2023-05-17T04:56:12;102392.91;;;14.11;56.47
70976;BME280;58635;51.198;6.010;2023-05-17T04:58:38;102404.72;;;14.14;56.40
70976;BME280;58635;51.198;6.010;2023-05-17T05:01:04;102395.75;;;14.16;56.35
70976;BME280;58635;51.198;6.010;2023-05-17T05:03:29;102410.19;;;14.19;56.33
70976;BME280;58635;51.198;6.010;2023-05-17T05:05:55;102408.25;;;14.21;56.42
70976;BME280;58635;51.198;6.010;2023-05-17T05:08:20;102412.09;;;14.25;56.49
70976;BME280;58635;51.198;6.010;2023-05-17T05:10:46;102412.19;;;14.31;56.27
70976;BME280;58635;51.198;6.010;2023-05-17T05:13:11;102419.47;;;14.36;55.96
70976;BME280;58635;51.198;6.010;2023-05-17T05:15:36;102419.41;;;14.44;55.99
70976;BME280;58635;51.198;6.010;2023-05-17T05:18:02;102421.13;;;14.52;55.82
70976;BME280;58635;51.198;6.010;2023-05-17T05:20:28;102422.84;;;14.59;55.85
70976;BME280;58635;51.198;6.010;2023-05-17T05:22:53;102428.50;;;14.63;55.69
70976;BME280;58635;51.198;6.010;2023-05-17T05:25:18;102425.34;;;14.68;55.58
70976;BME280;58635;51.198;6.010;2023-05-17T05:27:44;102437.84;;;14.72;55.44
70976;BME280;58635;51.198;6.010;2023-05-17T05:30:10;102435.69;;;14.76;55.65
70976;BME280;58635;51.198;6.010;2023-05-17T05:32:35;102435.78;;;14.82;55.51
70976;BME280;58635;51.198;6.010;2023-05-17T05:35:04;102439.63;;;14.86;55.52
70976;BME280;58635;51.198;6.010;2023-05-17T05:37:30;102437.66;;;14.88;55.21
70976;BME280;58635;51.198;6.010;2023-05-17T05:39:55;102446.63;;;14.86;55.48
70976;BME280;58635;51.198;6.010;2023-05-17T05:42:20;102445.66;;;14.87;55.49
70976;BME280;58635;51.198;6.010;2023-05-17T05:44:46;102437.03;;;14.86;55.53
70976;BME280;58635;51.198;6.010;2023-05-17T05:47:11;102455.25;;;14.86;55.61
70976;BME280;58635;51.198;6.010;2023-05-17T05:49:37;102450.66;;;14.88;55.57
70976;BME280;58635;51.198;6.010;2023-05-17T05:52:02;102449.50;;;14.91;55.66
70976;BME280;58635;51.198;6.010;2023-05-17T05:54:28;102455.97;;;14.95;55.58
70976;BME280;58635;51.198;6.010;2023-05-17T05:56:53;102459.81;;;14.99;55.41
70976;BME280;58635;51.198;6.010;2023-05-17T05:59:19;102461.72;;;15.05;55.42
70976;BME280;58635;51.198;6.010;2023-05-17T06:01:44;102467.81;;;15.12;55.34
70976;BME280;58635;51.198;6.010;2023-05-17T06:04:10;102476.09;;;15.16;55.20
70976;BME280;58635;51.198;6.010;2023-05-17T06:06:35;102467.97;;;15.26;55.21
70976;BME280;58635;51.198;6.010;2023-05-17T06:09:01;102467.94;;;15.40;55.08
70976;BME280;58635;51.198;6.010;2023-05-17T06:11:26;102470.69;;;15.54;54.81
70976;BME280;58635;51.198;6.010;2023-05-17T06:13:52;102472.84;;;15.65;54.66
70976;BME280;58635;51.198;6.010;2023-05-17T06:16:17;102476.94;;;15.74;54.38
70976;BME280;58635;51.198;6.010;2023-05-17T06:18:42;102467.88;;;15.91;54.37
70976;BME280;58635;51.198;6.010;2023-05-17T06:21:08;102468.22;;;16.09;53.95
70976;BME280;58635;51.198;6.010;2023-05-17T06:23:33;102470.78;;;16.31;53.28
70976;BME280;58635;51.198;6.010;2023-05-17T06:25:59;102467.38;;;16.58;53.15
70976;BME280;58635;51.198;6.010;2023-05-17T06:28:25;102476.41;;;16.84;52.45
70976;BME280;58635;51.198;6.010;2023-05-17T06:30:50;102477.28;;;17.04;51.96
70976;BME280;58635;51.198;6.010;2023-05-17T06:33:16;102482.75;;;17.16;51.82
70976;BME280;58635;51.198;6.010;2023-05-17T06:35:41;102485.03;;;17.39;51.22
70976;BME280;58635;51.198;6.010;2023-05-17T06:38:07;102483.91;;;17.54;50.85
70976;BME280;58635;51.198;6.010;2023-05-17T06:40:32;102490.13;;;17.60;50.69
70976;BME280;58635;51.198;6.010;2023-05-17T06:42:57;102490.16;;;17.67;50.24
70976;BME280;58635;51.198;6.010;2023-05-17T06:45:23;102498.81;;;17.67;50.41
70976;BME280;58635;51.198;6.010;2023-05-17T06:47:48;102494.38;;;17.68;50.06
70976;BME280;58635;51.198;6.010;2023-05-17T06:50:14;102492.41;;;17.70;49.32
70976;BME280;58635;51.198;6.010;2023-05-17T06:52:39;102501.25;;;17.69;48.97
70976;BME280;58635;51.198;6.010;2023-05-17T06:55:05;102498.59;;;17.62;49.24
70976;BME280;58635;51.198;6.010;2023-05-17T06:57:31;102504.41;;;17.58;49.08
70976;BME280;58635;51.198;6.010;2023-05-17T06:59:57;102513.28;;;17.57;49.36
70976;BME280;58635;51.198;6.010;2023-05-17T07:02:23;102507.03;;;17.58;48.94
70976;BME280;58635;51.198;6.010;2023-05-17T07:04:48;102506.63;;;17.54;48.53
70976;BME280;58635;51.198;6.010;2023-05-17T07:07:13;102506.44;;;17.56;48.34
70976;BME280;58635;51.198;6.010;2023-05-17T07:09:39;102500.25;;;17.70;47.84
70976;BME280;58635;51.198;6.010;2023-05-17T07:12:04;102504.91;;;17.94;47.10
70976;BME280;58635;51.198;6.010;2023-05-17T07:14:30;102508.34;;;18.21;46.46
70976;BME280;58635;51.198;6.010;2023-05-17T07:16:56;102511.94;;;18.47;45.75
70976;BME280;58635;51.198;6.010;2023-05-17T07:19:22;102505.06;;;18.79;45.31
70976;BME280;58635;51.198;6.010;2023-05-17T07:21:47;102512.47;;;19.08;44.47
70976;BME280;58635;51.198;6.010;2023-05-17T07:24:13;102505.88;;;19.37;43.98
70976;BME280;58635;51.198;6.010;2023-05-17T07:26:38;102505.72;;;19.70;43.08
70976;BME280;58635;51.198;6.010;2023-05-17T07:29:04;102503.88;;;20.02;42.00
70976;BME280;58635;51.198;6.010;2023-05-17T07:31:29;102502.41;;;20.06;41.85
70976;BME280;58635;51.198;6.010;2023-05-17T07:33:54;102506.22;;;20.10;41.39
70976;BME280;58635;51.198;6.010;2023-05-17T07:36:20;102507.44;;;20.33;40.90
70976;BME280;58635;51.198;6.010;2023-05-17T07:38:45;102505.81;;;20.57;40.50
70976;BME280;58635;51.198;6.010;2023-05-17T07:41:11;102512.84;;;20.63;40.22
70976;BME280;58635;51.198;6.010;2023-05-17T07:43:41;102509.41;;;20.62;39.81
70976;BME280;58635;51.198;6.010;2023-05-17T07:46:06;102512.09;;;20.56;39.38
70976;BME280;58635;51.198;6.010;2023-05-17T07:48:32;102515.47;;;20.63;39.09
70976;BME280;58635;51.198;6.010;2023-05-17T07:50:57;102510.72;;;20.53;38.91
70976;BME280;58635;51.198;6.010;2023-05-17T07:53:22;102507.81;;;20.36;38.73
70976;BME280;58635;51.198;6.010;2023-05-17T07:55:48;102531.47;;;20.36;38.58
70976;BME280;58635;51.198;6.010;2023-05-17T07:58:13;102531.97;;;20.52;38.33
70976;BME280;58635;51.198;6.010;2023-05-17T08:00:39;102518.31;;;20.61;37.71
70976;BME280;58635;51.198;6.010;2023-05-17T08:03:06;102528.31;;;20.71;37.51
70976;BME280;58635;51.198;6.010;2023-05-17T08:05:33;102528.84;;;20.80;37.16
70976;BME280;58635;51.198;6.010;2023-05-17T08:07:58;102523.59;;;20.80;36.84
70976;BME280;58635;51.198;6.010;2023-05-17T08:10:25;102519.28;;;20.85;36.24
70976;BME280;58635;51.198;6.010;2023-05-17T08:12:51;102514.84;;;20.86;36.02
70976;BME280;58635;51.198;6.010;2023-05-17T08:15:17;102525.47;;;20.91;36.07
70976;BME280;58635;51.198;6.010;2023-05-17T08:17:43;102523.88;;;20.90;35.90
70976;BME280;58635;51.198;6.010;2023-05-17T08:20:08;102534.69;;;20.82;35.64
70976;BME280;58635;51.198;6.010;2023-05-17T08:22:34;102523.88;;;20.71;35.74
70976;BME280;58635;51.198;6.010;2023-05-17T08:25:00;102530.53;;;20.74;35.98
70976;BME280;58635;51.198;6.010;2023-05-17T08:27:26;102527.00;;;20.80;36.09
70976;BME280;58635;51.198;6.010;2023-05-17T08:29:51;102534.03;;;20.86;35.91
70976;BME280;58635;51.198;6.010;2023-05-17T08:32:18;102523.75;;;20.85;35.71
70976;BME280;58635;51.198;6.010;2023-05-17T08:34:44;102532.72;;;20.77;35.80
70976;BME280;58635;51.198;6.010;2023-05-17T08:37:09;102532.19;;;20.68;35.67
70976;BME280;58635;51.198;6.010;2023-05-17T08:39:35;102530.06;;;20.59;35.56
70976;BME280;58635;51.198;6.010;2023-05-17T08:42:00;102528.53;;;20.51;35.70
70976;BME280;58635;51.198;6.010;2023-05-17T08:44:26;102525.31;;;20.49;35.57
70976;BME280;58635;51.198;6.010;2023-05-17T08:46:55;102532.41;;;20.49;35.54
70976;BME280;58635;51.198;6.010;2023-05-17T08:49:21;102533.13;;;20.56;35.59
70976;BME280;58635;51.198;6.010;2023-05-17T08:51:52;102535.53;;;20.57;35.09
70976;BME280;58635;51.198;6.010;2023-05-17T08:54:18;102531.53;;;20.55;35.34
70976;BME280;58635;51.198;6.010;2023-05-17T08:56:44;102534.97;;;20.55;35.27
70976;BME280;58635;51.198;6.010;2023-05-17T08:59:11;102541.38;;;20.59;35.11
70976;BME280;58635;51.198;6.010;2023-05-17T09:01:42;102536.88;;;20.66;34.97
70976;BME280;58635;51.198;6.010;2023-05-17T09:04:07;102535.34;;;20.77;34.67
70976;BME280;58635;51.198;6.010;2023-05-17T09:06:34;102542.50;;;20.88;34.55
70976;BME280;58635;51.198;6.010;2023-05-17T09:08:59;102541.84;;;20.93;34.59
70976;BME280;58635;51.198;6.010;2023-05-17T09:11:32;102532.13;;;20.93;34.71
70976;BME280;58635;51.198;6.010;2023-05-17T09:14:03;102529.78;;;21.03;34.71
70976;BME280;58635;51.198;6.010;2023-05-17T09:16:36;102532.25;;;21.17;33.82
70976;BME280;58635;51.198;6.010;2023-05-17T09:19:04;102534.25;;;21.21;33.89
70976;BME280;58635;51.198;6.010;2023-05-17T09:21:30;102528.34;;;21.26;33.51
70976;BME280;58635;51.198;6.010;2023-05-17T09:23:57;102533.84;;;21.18;33.29
70976;BME280;58635;51.198;6.010;2023-05-17T09:29:07;102536.00;;;21.09;33.39
70976;BME280;58635;51.198;6.010;2023-05-17T09:31:33;102535.47;;;21.19;33.02
70976;BME280;58635;51.198;6.010;2023-05-17T09:33:58;102533.53;;;21.33;32.70
70976;BME280;58635;51.198;6.010;2023-05-17T09:36:24;102533.91;;;21.48;32.61
70976;BME280;58635;51.198;6.010;2023-05-17T09:38:58;102534.75;;;21.60;32.80
70976;BME280;58635;51.198;6.010;2023-05-17T09:41:31;102533.78;;;21.73;32.47
70976;BME280;58635;51.198;6.010;2023-05-17T09:44:02;102529.56;;;21.83;31.70
70976;BME280;58635;51.198;6.010;2023-05-17T09:46:32;102529.34;;;21.97;31.64
70976;BME280;58635;51.198;6.010;2023-05-17T09:49:00;102533.50;;;22.04;31.63
70976;BME280;58635;51.198;6.010;2023-05-17T09:51:33;102526.25;;;22.00;31.83
70976;BME280;58635;51.198;6.010;2023-05-17T09:53:59;102534.06;;;21.95;31.64
70976;BME280;58635;51.198;6.010;2023-05-17T09:56:34;102534.72;;;21.90;31.57
70976;BME280;58635;51.198;6.010;2023-05-17T09:59:00;102535.53;;;21.79;31.69
70976;BME280;58635;51.198;6.010;2023-05-17T10:01:27;102533.06;;;21.66;31.80
70976;BME280;58635;51.198;6.010;2023-05-17T10:03:54;102536.47;;;21.66;31.38
70976;BME280;58635;51.198;6.010;2023-05-17T10:06:21;102528.75;;;21.83;30.95
70976;BME280;58635;51.198;6.010;2023-05-17T10:08:53;102526.16;;;21.95;30.88
70976;BME280;58635;51.198;6.010;2023-05-17T10:11:29;102527.63;;;21.91;31.15
70976;BME280;58635;51.198;6.010;2023-05-17T10:16:38;102533.66;;;21.68;31.20
70976;BME280;58635;51.198;6.010;2023-05-17T10:19:04;102535.44;;;21.55;31.67
70976;BME280;58635;51.198;6.010;2023-05-17T10:21:30;102537.13;;;21.50;32.05
70976;BME280;58635;51.198;6.010;2023-05-17T10:24:01;102532.91;;;21.49;31.55
70976;BME280;58635;51.198;6.010;2023-05-17T10:26:28;102534.78;;;21.42;31.47
70976;BME280;58635;51.198;6.010;2023-05-17T10:28:58;102537.97;;;21.32;31.74
70976;BME280;58635;51.198;6.010;2023-05-17T10:31:31;102531.31;;;21.29;32.24
70976;BME280;58635;51.198;6.010;2023-05-17T10:34:01;102526.78;;;21.37;32.04
70976;BME280;58635;51.198;6.010;2023-05-17T10:36:27;102522.81;;;21.46;31.97
70976;BME280;58635;51.198;6.010;2023-05-17T10:38:53;102518.16;;;21.59;31.53
70976;BME280;58635;51.198;6.010;2023-05-17T10:41:21;102520.25;;;21.69;30.79
70976;BME280;58635;51.198;6.010;2023-05-17T10:43:48;102512.16;;;21.82;30.79
70976;BME280;58635;51.198;6.010;2023-05-17T10:46:15;102510.59;;;22.05;30.18
70976;BME280;58635;51.198;6.010;2023-05-17T10:48:42;102512.09;;;22.24;29.97
70976;BME280;58635;51.198;6.010;2023-05-17T10:51:09;102504.31;;;22.41;29.75
70976;BME280;58635;51.198;6.010;2023-05-17T10:56:32;102505.31;;;22.75;29.49
70976;BME280;58635;51.198;6.010;2023-05-17T11:04:30;102499.13;;;23.21;29.00
70976;BME280;58635;51.198;6.010;2023-05-17T11:10:01;102486.34;;;23.92;27.88
70976;BME280;58635;51.198;6.010;2023-05-17T11:15:16;102503.41;;;23.56;28.24
70976;BME280;58635;51.198;6.010;2023-05-17T11:20:29;102497.09;;;23.12;29.05
70976;BME280;58635;51.198;6.010;2023-05-17T11:23:01;102492.63;;;23.29;28.60
70976;BME280;58635;51.198;6.010;2023-05-17T11:25:34;102494.56;;;23.62;28.35
70976;BME280;58635;51.198;6.010;2023-05-17T11:28:06;102498.34;;;23.83;27.63
70976;BME280;58635;51.198;6.010;2023-05-17T11:30:32;102495.44;;;23.68;27.79
70976;BME280;58635;51.198;6.010;2023-05-17T11:35:30;102495.91;;;23.65;27.63
70976;BME280;58635;51.198;6.010;2023-05-17T11:40:40;102501.19;;;24.15;27.88
70976;BME280;58635;51.198;6.010;2023-05-17T11:43:16;102497.84;;;24.19;27.45
70976;BME280;58635;51.198;6.010;2023-05-17T11:45:46;102494.09;;;24.15;27.05
70976;BME280;58635;51.198;6.010;2023-05-17T11:48:13;102498.00;;;23.96;27.42
70976;BME280;58635;51.198;6.010;2023-05-17T11:50:42;102489.84;;;23.98;27.46
70976;BME280;58635;51.198;6.010;2023-05-17T11:53:09;102497.75;;;24.14;27.04
70976;BME280;58635;51.198;6.010;2023-05-17T11:55:51;102488.59;;;24.39;25.80
70976;BME280;58635;51.198;6.010;2023-05-17T11:58:19;102489.19;;;24.63;25.57
70976;BME280;58635;51.198;6.010;2023-05-17T12:00:51;102483.94;;;24.90;24.64
70976;BME280;58635;51.198;6.010;2023-05-17T12:03:21;102482.47;;;24.99;24.91
70976;BME280;58635;51.198;6.010;2023-05-17T12:05:49;102491.56;;;24.86;24.94
70976;BME280;58635;51.198;6.010;2023-05-17T12:08:16;102486.16;;;24.54;25.34
70976;BME280;58635;51.198;6.010;2023-05-17T12:10:47;102489.50;;;24.28;25.71
70976;BME280;58635;51.198;6.010;2023-05-17T12:13:13;102488.91;;;24.26;25.74
70976;BME280;58635;51.198;6.010;2023-05-17T12:15:40;102479.56;;;24.35;25.43
70976;BME280;58635;51.198;6.010;2023-05-17T12:18:08;102486.72;;;24.56;24.77
70976;BME280;58635;51.198;6.010;2023-05-17T12:20:33;102481.44;;;24.78;24.38
70976;BME280;58635;51.198;6.010;2023-05-17T12:22:59;102478.03;;;25.04;23.87
70976;BME280;58635;51.198;6.010;2023-05-17T12:25:25;102482.66;;;25.19;24.02
70976;BME280;58635;51.198;6.010;2023-05-17T12:27:53;102471.53;;;25.17;24.38
70976;BME280;58635;51.198;6.010;2023-05-17T12:30:18;102484.53;;;25.19;24.37
70976;BME280;58635;51.198;6.010;2023-05-17T12:32:44;102479.53;;;25.22;24.51
70976;BME280;58635;51.198;6.010;2023-05-17T12:35:11;102484.97;;;25.38;24.26
70976;BME280;58635;51.198;6.010;2023-05-17T12:37:37;102478.13;;;25.42;24.31
70976;BME280;58635;51.198;6.010;2023-05-17T12:40:03;102476.00;;;25.44;24.17
70976;BME280;58635;51.198;6.010;2023-05-17T12:42:32;102477.66;;;25.50;24.30
70976;BME280;58635;51.198;6.010;2023-05-17T12:44:58;102476.94;;;25.59;24.50
70976;BME280;58635;51.198;6.010;2023-05-17T12:47:24;102462.81;;;25.81;24.13
70976;BME280;58635;51.198;6.010;2023-05-17T12:49:54;102473.00;;;25.99;23.64
70976;BME280;58635;51.198;6.010;2023-05-17T12:52:20;102468.56;;;26.05;23.75
70976;BME280;58635;51.198;6.010;2023-05-17T12:54:45;102469.91;;;26.12;23.58
70976;BME280;58635;51.198;6.010;2023-05-17T12:57:16;102471.31;;;26.25;23.21
70976;BME280;58635;51.198;6.010;2023-05-17T12:59:50;102478.66;;;26.13;23.35
70976;BME280;58635;51.198;6.010;2023-05-17T13:02:18;102473.78;;;25.94;23.12
70976;BME280;58635;51.198;6.010;2023-05-17T13:04:43;102468.41;;;25.84;22.91
70976;BME280;58635;51.198;6.010;2023-05-17T13:07:10;102465.25;;;25.87;22.34
70976;BME280;58635;51.198;6.010;2023-05-17T13:09:44;102467.16;;;25.97;22.60
70976;BME280;58635;51.198;6.010;2023-05-17T13:12:18;102457.66;;;26.01;22.68
70976;BME280;58635;51.198;6.010;2023-05-17T13:14:48;102466.41;;;26.02;22.57
70976;BME280;58635;51.198;6.010;2023-05-17T13:18:16;102463.00;;;26.06;22.29
70976;BME280;58635;51.198;6.010;2023-05-17T13:20:11;102458.03;;;26.25;22.61
70976;BME280;58635;51.198;6.010;2023-05-17T13:22:44;102459.75;;;26.46;22.37
70976;BME280;58635;51.198;6.010;2023-05-17T13:25:09;102464.13;;;26.26;22.54